Time,TemperatureF,DewpointF,PressureIn,WindDirection,WindDirectionDegrees,WindSpeedMPH,WindSpeedGustMPH,Humidity,HourlyPrecipIn,Conditions,Clouds,dailyrainin,SoftwareType,DateUTC
2013-02-01 00:02:00,33.6,32.8,29.92,NNW,338,0.0,0.0,97,0.00,,,0.00,WUHU216HW,2013-02-01 08:02:00,
2013-02-01 00:07:00,33.6,32.8,29.92,NNW,338,0.0,0.0,97,0.00,,,0.00,WUHU216HW,2013-02-01 08:07:00,
2013-02-01 00:12:00,33.4,32.6,29.92,NNW,338,0.0,0.0,97,0.00,,,0.00,WUHU216HW,2013-02-01 08:12:00,
2013-02-01 00:17:00,33.4,32.6,29.92,NNW,338,0.0,0.0,97,0.00,,,0.00,WUHU216HW,2013-02-01 08:17:00,
2013-02-01 00:22:00,33.4,32.6,29.92,NNW,338,0.0,0.0,97,0.00,,,0.00,WUHU216HW,2013-02-01 08:22:00,
2013-02-01 00:27:00,33.4,32.6,29.93,NNW,338,0.0,0.0,97,0.00,,,0.00,WUHU216HW,2013-02-01 08:27:00,
2013-02-01 00:32:00,33.4,32.6,29.92,NNW,338,0.0,0.0,97,0.00,,,0.00,WUHU216HW,2013-02-01 08:32:00,
2013-02-01 00:37:00,33.2,32.4,29.93,NNW,338,0.0,0.0,97,0.00,,,0.00,WUHU216HW,2013-02-01 08:37:00,
2013-02-01 00:42:00,33.2,32.4,29.93,NNW,338,0.0,0.0,97,0.00,,,0.00,WUHU216HW,2013-02-01 08:42:00,
2013-02-01 00:47:00,33.2,32.4,29.93,NNW,338,0.0,0.0,97,0.00,,,0.00,WUHU216HW,2013-02-01 08:47:00,
2013-02-01 00:52:00,33.2,32.4,29.93,NNW,338,0.0,0.0,97,0.00,,,0.00,WUHU216HW,2013-02-01 08:52:00,
2013-02-01 00:58:00,33.2,32.4,29.93,NNW,338,0.0,0.0,97,0.00,,,0.00,WUHU216HW,2013-02-01 08:58:00,
2013-02-01 01:03:00,33.2,32.4,29.93,NNW,338,0.0,0.0,97,0.00,,,0.00,WUHU216HW,2013-02-01 09:03:00,
2013-02-01 01:08:00,33.0,32.2,29.93,NNW,338,0.0,0.0,97,0.00,,,0.00,WUHU216HW,2013-02-01 09:08:00,
2013-02-01 01:13:00,33.0,32.2,29.93,NNW,338,0.0,0.0,97,0.00,,,0.00,WUHU216HW,2013-02-01 09:13:00,
2013-02-01 01:18:00,33.0,32.2,29.93,NNW,338,0.0,0.0,97,0.00,,,0.00,WUHU216HW,2013-02-01 09:18:00,
2013-02-01 01:23:00,33.0,32.2,29.93,NNW,338,0.0,0.0,97,0.00,,,0.00,WUHU216HW,2013-02-01 09:23:00,
2013-02-01 01:28:00,33.0,32.2,29.93,NNW,338,0.0,0.0,97,0.00,,,0.00,WUHU216HW,2013-02-01 09:28:00,
2013-02-01 01:33:00,33.0,32.2,29.93,NNW,338,0.0,0.0,97,0.00,,,0.00,WUHU216HW,2013-02-01 09:33:00,
2013-02-01 01:38:00,32.9,32.1,29.93,NNW,338,0.0,0.0,97,0.00,,,0.00,WUHU216HW,2013-02-01 09:38:00,
2013-02-01 01:43:00,32.7,31.9,29.94,NNW,338,0.0,0.0,97,0.00,,,0.00,WUHU216HW,2013-02-01 09:43:00,
2013-02-01 01:48:00,32.7,31.9,29.94,NNW,338,0.0,0.0,97,0.00,,,0.00,WUHU216HW,2013-02-01 09:48:00,
2013-02-01 01:53:00,32.7,31.9,29.94,NNW,338,0.0,0.0,97,0.00,,,0.00,WUHU216HW,2013-02-01 09:53:00,
2013-02-01 01:58:00,32.9,32.1,29.95,NNW,338,0.0,0.0,97,0.00,,,0.00,WUHU216HW,2013-02-01 09:58:00,
2013-02-01 02:03:00,32.9,32.1,29.94,NNW,338,0.0,0.0,97,0.00,,,0.00,WUHU216HW,2013-02-01 10:03:00,
2013-02-01 02:08:00,32.9,32.1,29.94,NNW,338,0.0,0.0,97,0.00,,,0.00,WUHU216HW,2013-02-01 10:08:00,
2013-02-01 02:13:00,32.9,32.1,29.95,NNW,338,0.0,0.0,97,0.00,,,0.00,WUHU216HW,2013-02-01 10:13:00,
2013-02-01 02:18:00,32.7,31.9,29.95,NNW,338,0.0,0.0,97,0.00,,,0.00,WUHU216HW,2013-02-01 10:18:00,
2013-02-01 02:23:00,32.9,32.1,29.95,NNW,338,0.0,0.0,97,0.00,,,0.00,WUHU216HW,2013-02-01 10:23:00,
2013-02-01 02:28:00,32.7,31.9,29.95,NNW,338,0.0,0.0,97,0.00,,,0.00,WUHU216HW,2013-02-01 10:28:00,
2013-02-01 02:33:00,32.7,31.9,29.95,NNW,338,0.0,0.0,97,0.00,,,0.00,WUHU216HW,2013-02-01 10:33:00,
2013-02-01 02:38:00,32.7,31.9,29.95,NNW,338,0.0,0.0,97,0.00,,,0.00,WUHU216HW,2013-02-01 10:38:00,
2013-02-01 02:43:00,32.7,31.9,29.95,NNW,338,0.0,0.0,97,0.00,,,0.00,WUHU216HW,2013-02-01 10:43:00,
2013-02-01 02:48:00,32.7,31.9,29.95,NNW,338,0.0,0.0,97,0.00,,,0.00,WUHU216HW,2013-02-01 10:48:00,
2013-02-01 02:53:00,32.7,31.9,29.95,NNW,338,0.0,0.0,97,0.00,,,0.00,WUHU216HW,2013-02-01 10:53:00,
2013-02-01 02:58:00,32.7,31.9,29.95,NNW,338,0.0,0.0,97,0.00,,,0.00,WUHU216HW,2013-02-01 10:58:00,
2013-02-01 03:03:00,32.7,31.9,29.95,NNW,338,0.0,0.0,97,0.00,,,0.00,WUHU216HW,2013-02-01 11:03:00,
2013-02-01 03:08:00,32.7,31.9,29.95,NNW,338,0.0,0.0,97,0.00,,,0.00,WUHU216HW,2013-02-01 11:08:00,
2013-02-01 03:13:00,32.7,31.9,29.95,NNW,338,0.0,0.0,97,0.00,,,0.00,WUHU216HW,2013-02-01 11:13:00,
2013-02-01 03:18:00,32.7,31.9,29.94,NNW,338,0.0,0.0,97,0.00,,,0.00,WUHU216HW,2013-02-01 11:18:00,
2013-02-01 03:23:00,32.5,31.7,29.94,NNW,338,0.0,0.0,97,0.00,,,0.00,WUHU216HW,2013-02-01 11:23:00,
2013-02-01 03:28:00,32.5,31.7,29.94,NNW,338,0.0,0.0,97,0.00,,,0.00,WUHU216HW,2013-02-01 11:28:00,
2013-02-01 03:45:00,32.5,31.7,29.95,NNW,338,0.0,0.0,97,0.00,,,0.00,WUHU216HW,2013-02-01 11:45:00,
2013-02-01 03:50:00,32.3,31.5,29.95,NNW,338,0.0,0.0,97,0.00,,,0.00,WUHU216HW,2013-02-01 11:50:00,
2013-02-01 03:55:00,32.3,31.5,29.95,NNW,338,0.0,0.0,97,0.00,,,0.00,WUHU216HW,2013-02-01 11:55:00,
2013-02-01 04:00:00,32.3,31.5,29.95,NNW,338,0.0,0.0,97,0.00,,,0.00,WUHU216HW,2013-02-01 12:00:00,
2013-02-01 04:05:00,32.1,31.4,29.95,NNW,338,0.0,0.0,97,0.00,,,0.00,WUHU216HW,2013-02-01 12:05:00,
2013-02-01 04:10:00,32.1,31.4,29.95,NNW,338,0.0,0.0,97,0.00,,,0.00,WUHU216HW,2013-02-01 12:10:00,
2013-02-01 04:15:00,32.1,31.4,29.95,NNW,338,0.0,0.0,97,0.00,,,0.00,WUHU216HW,2013-02-01 12:15:00,
2013-02-01 04:20:00,32.0,31.2,29.95,NNW,338,0.0,0.0,97,0.00,,,0.00,WUHU216HW,2013-02-01 12:20:00,
2013-02-01 04:25:00,31.8,31.0,29.95,NNW,338,0.0,0.0,97,0.00,,,0.00,WUHU216HW,2013-02-01 12:25:00,
2013-02-01 04:30:00,31.8,31.0,29.95,NNW,338,0.0,0.0,97,0.00,,,0.00,WUHU216HW,2013-02-01 12:30:00,
2013-02-01 04:35:00,31.8,31.0,29.95,NNW,338,0.0,0.0,97,0.00,,,0.00,WUHU216HW,2013-02-01 12:35:00,
2013-02-01 04:40:00,31.6,30.8,29.95,NNW,338,0.0,0.0,97,0.00,,,0.00,WUHU216HW,2013-02-01 12:40:00,
2013-02-01 04:45:00,31.6,30.8,29.95,NNW,338,0.0,0.0,97,0.00,,,0.00,WUHU216HW,2013-02-01 12:45:00,
2013-02-01 04:50:00,31.4,30.7,29.95,NNW,338,0.0,0.0,97,0.00,,,0.00,WUHU216HW,2013-02-01 12:50:00,
2013-02-01 04:55:00,31.2,30.5,29.95,NNW,338,0.0,0.0,97,0.00,,,0.00,WUHU216HW,2013-02-01 12:55:00,
2013-02-01 05:00:00,31.2,30.5,29.95,NNW,338,0.0,0.0,97,0.00,,,0.00,WUHU216HW,2013-02-01 13:00:00,
2013-02-01 05:05:00,31.2,30.5,29.95,NNW,338,0.0,0.0,97,0.00,,,0.00,WUHU216HW,2013-02-01 13:05:00,
2013-02-01 05:10:00,31.2,30.5,29.95,NNW,338,0.0,0.0,97,0.00,,,0.00,WUHU216HW,2013-02-01 13:10:00,
2013-02-01 05:15:00,31.2,30.5,29.95,NNW,338,0.0,0.0,97,0.00,,,0.00,WUHU216HW,2013-02-01 13:15:00,
2013-02-01 05:20:00,31.1,30.3,29.95,NNW,338,0.0,0.0,97,0.00,,,0.00,WUHU216HW,2013-02-01 13:20:00,
2013-02-01 05:25:00,31.1,30.3,29.95,NNW,338,0.0,0.0,97,0.00,,,0.00,WUHU216HW,2013-02-01 13:25:00,
2013-02-01 05:30:00,31.1,30.3,29.95,NNW,338,0.0,0.0,97,0.00,,,0.00,WUHU216HW,2013-02-01 13:30:00,
2013-02-01 05:35:00,30.9,30.1,29.95,NNW,338,0.0,0.0,97,0.00,,,0.00,WUHU216HW,2013-02-01 13:35:00,
2013-02-01 05:40:00,31.1,30.3,29.95,NNW,338,0.0,0.0,97,0.00,,,0.00,WUHU216HW,2013-02-01 13:40:00,
2013-02-01 05:45:00,30.9,30.1,29.95,NNW,338,0.0,0.0,97,0.00,,,0.00,WUHU216HW,2013-02-01 13:45:00,
2013-02-01 05:50:00,30.9,30.1,29.95,NNW,338,0.0,0.0,97,0.00,,,0.00,WUHU216HW,2013-02-01 13:50:00,
2013-02-01 05:55:00,30.9,30.1,29.95,NNW,338,0.0,0.0,97,0.00,,,0.00,WUHU216HW,2013-02-01 13:55:00,
2013-02-01 06:00:00,30.9,30.1,29.94,NNW,338,0.0,0.0,97,0.00,,,0.00,WUHU216HW,2013-02-01 14:00:00,
2013-02-01 06:05:00,30.9,30.1,29.95,NNW,338,0.0,0.0,97,0.00,,,0.00,WUHU216HW,2013-02-01 14:05:00,
2013-02-01 06:10:00,30.9,30.1,29.95,NNW,338,0.0,0.0,97,0.00,,,0.00,WUHU216HW,2013-02-01 14:10:00,
2013-02-01 06:15:00,30.9,30.1,29.94,NNW,338,0.0,0.0,97,0.00,,,0.00,WUHU216HW,2013-02-01 14:15:00,
2013-02-01 06:20:00,30.7,29.9,29.95,NNW,338,0.0,0.0,97,0.00,,,0.00,WUHU216HW,2013-02-01 14:20:00,
2013-02-01 06:25:00,30.7,29.9,29.95,NNW,338,0.0,0.0,97,0.00,,,0.00,WUHU216HW,2013-02-01 14:25:00,
2013-02-01 06:30:00,30.7,29.9,29.94,NNW,338,0.0,0.0,97,0.00,,,0.00,WUHU216HW,2013-02-01 14:30:00,
2013-02-01 06:35:00,30.7,29.9,29.94,NNW,338,0.0,0.0,97,0.00,,,0.00,WUHU216HW,2013-02-01 14:35:00,
2013-02-01 06:40:00,30.7,29.9,29.94,NNW,338,0.0,0.0,97,0.00,,,0.00,WUHU216HW,2013-02-01 14:40:00,
2013-02-01 06:45:00,30.7,29.9,29.94,NNW,338,0.0,0.0,97,0.00,,,0.00,WUHU216HW,2013-02-01 14:45:00,
2013-02-01 06:50:00,30.7,29.9,29.94,NNW,338,0.0,0.0,97,0.00,,,0.00,WUHU216HW,2013-02-01 14:50:00,
2013-02-01 06:56:00,30.7,29.9,29.94,NNW,338,0.0,0.0,97,0.00,,,0.00,WUHU216HW,2013-02-01 14:56:00,
2013-02-01 07:01:00,30.7,29.9,29.94,NNW,338,0.0,0.0,97,0.00,,,0.00,WUHU216HW,2013-02-01 15:01:00,
2013-02-01 07:06:00,30.7,29.9,29.94,NNW,338,0.0,0.0,97,0.00,,,0.00,WUHU216HW,2013-02-01 15:06:00,
2013-02-01 07:11:00,30.7,29.9,29.94,NNW,338,0.0,0.0,97,0.00,,,0.00,WUHU216HW,2013-02-01 15:11:00,
2013-02-01 07:16:00,30.7,29.9,29.94,NNW,338,0.0,0.0,97,0.00,,,0.00,WUHU216HW,2013-02-01 15:16:00,
2013-02-01 07:21:00,30.7,29.9,29.94,NNW,338,0.0,0.0,97,0.00,,,0.00,WUHU216HW,2013-02-01 15:21:00,
2013-02-01 07:26:00,30.7,29.9,29.94,NNW,338,0.0,0.0,97,0.00,,,0.00,WUHU216HW,2013-02-01 15:26:00,
2013-02-01 07:31:00,30.7,29.9,29.93,NNW,338,0.0,0.0,97,0.00,,,0.00,WUHU216HW,2013-02-01 15:31:00,
2013-02-01 07:36:00,30.7,29.9,29.93,NNW,338,0.0,0.0,97,0.00,,,0.00,WUHU216HW,2013-02-01 15:36:00,
2013-02-01 07:41:00,30.7,29.9,29.93,NNW,338,0.0,0.0,97,0.00,,,0.00,WUHU216HW,2013-02-01 15:41:00,
2013-02-01 07:46:00,30.7,29.9,29.93,NNW,338,0.0,0.0,97,0.00,,,0.00,WUHU216HW,2013-02-01 15:46:00,
2013-02-01 07:51:00,30.7,29.9,29.93,NNW,338,0.0,0.0,97,0.00,,,0.00,WUHU216HW,2013-02-01 15:51:00,
2013-02-01 07:56:00,30.7,29.9,29.94,NNW,338,0.0,0.0,97,0.00,,,0.00,WUHU216HW,2013-02-01 15:56:00,
2013-02-01 08:01:00,30.7,29.9,29.93,NNW,338,0.0,0.0,97,0.00,,,0.00,WUHU216HW,2013-02-01 16:01:00,
2013-02-01 08:06:00,30.9,30.1,29.94,NNW,338,0.0,0.0,97,0.00,,,0.00,WUHU216HW,2013-02-01 16:06:00,
2013-02-01 08:11:00,30.9,30.1,29.94,NNW,338,0.0,0.0,97,0.00,,,0.00,WUHU216HW,2013-02-01 16:11:00,
2013-02-01 08:16:00,31.1,30.3,29.94,NNW,338,0.0,0.0,97,0.00,,,0.00,WUHU216HW,2013-02-01 16:16:00,
2013-02-01 08:21:00,31.1,30.3,29.94,NNW,338,0.0,0.0,97,0.00,,,0.00,WUHU216HW,2013-02-01 16:21:00,
2013-02-01 08:26:00,31.2,30.5,29.94,NNW,338,0.0,0.0,97,0.00,,,0.00,WUHU216HW,2013-02-01 16:26:00,
2013-02-01 08:31:00,31.4,30.7,29.94,NNW,338,0.0,0.0,97,0.00,,,0.00,WUHU216HW,2013-02-01 16:31:00,
2013-02-01 08:36:00,31.4,30.7,29.94,NNW,338,0.0,0.0,97,0.00,,,0.00,WUHU216HW,2013-02-01 16:36:00,
2013-02-01 08:45:00,31.6,30.8,29.95,NNW,338,0.0,0.0,97,0.00,,,0.00,WUHU216HW,2013-02-01 16:45:00,
2013-02-01 08:50:00,31.6,30.8,29.94,NNW,338,0.0,0.0,97,0.00,,,0.00,WUHU216HW,2013-02-01 16:50:00,
2013-02-01 08:55:00,31.8,31.0,29.94,NNW,338,0.0,0.0,97,0.00,,,0.00,WUHU216HW,2013-02-01 16:55:00,
2013-02-01 09:07:00,32.1,31.4,29.94,NNW,338,0.0,0.0,97,0.00,,,0.00,WUHU216HW,2013-02-01 17:07:00,
2013-02-01 09:12:00,32.1,31.5,29.95,NNW,338,0.0,0.0,97,0.00,,,0.00,WUHU216HW,2013-02-01 17:12:00,
2013-02-01 09:17:00,32.3,31.5,29.94,NNW,338,0.0,0.0,97,0.00,,,0.00,WUHU216HW,2013-02-01 17:17:00,
2013-02-01 09:22:00,32.3,31.5,29.94,NNW,338,0.0,0.0,97,0.00,,,0.00,WUHU216HW,2013-02-01 17:22:00,
2013-02-01 09:27:00,32.3,31.5,29.95,NNW,338,0.0,0.0,97,0.00,,,0.00,WUHU216HW,2013-02-01 17:27:00,
2013-02-01 09:32:00,32.3,31.5,29.94,NNW,338,0.0,0.0,97,0.00,,,0.00,WUHU216HW,2013-02-01 17:32:00,
2013-02-01 09:37:00,32.1,31.4,29.95,NNW,338,0.0,0.0,97,0.00,,,0.00,WUHU216HW,2013-02-01 17:37:00,
2013-02-01 09:42:00,32.1,31.4,29.94,NNW,338,0.0,0.0,97,0.00,,,0.00,WUHU216HW,2013-02-01 17:42:00,
2013-02-01 09:47:00,32.3,31.5,29.94,NNW,338,0.0,0.0,97,0.00,,,0.00,WUHU216HW,2013-02-01 17:47:00,
2013-02-01 09:52:00,32.1,31.4,29.94,NNW,338,0.0,0.0,97,0.00,,,0.00,WUHU216HW,2013-02-01 17:52:00,
2013-02-01 09:57:00,32.3,31.5,29.95,NNW,338,0.0,0.0,97,0.00,,,0.00,WUHU216HW,2013-02-01 17:57:00,
2013-02-01 10:02:00,32.5,31.7,29.94,NNW,338,0.0,0.0,97,0.00,,,0.00,WUHU216HW,2013-02-01 18:02:00,
2013-02-01 10:07:00,32.5,31.7,29.94,NNW,338,0.0,0.0,97,0.00,,,0.00,WUHU216HW,2013-02-01 18:07:00,
2013-02-01 10:12:00,32.5,31.7,29.94,NNW,338,0.0,0.0,97,0.00,,,0.00,WUHU216HW,2013-02-01 18:12:00,
2013-02-01 10:17:00,32.7,31.9,29.94,NNW,338,0.0,0.0,97,0.00,,,0.00,WUHU216HW,2013-02-01 18:17:00,
2013-02-01 10:22:00,32.9,32.1,29.94,NNW,338,0.0,0.0,97,0.00,,,0.00,WUHU216HW,2013-02-01 18:22:00,
2013-02-01 10:31:00,33.4,32.6,29.94,NNW,338,0.0,0.0,97,0.00,,,0.00,WUHU216HW,2013-02-01 18:31:00,
2013-02-01 10:36:00,33.6,32.8,29.95,NNW,338,0.0,0.0,97,0.00,,,0.00,WUHU216HW,2013-02-01 18:36:00,
2013-02-01 10:41:00,33.6,32.8,29.95,NNW,338,0.0,0.0,97,0.00,,,0.00,WUHU216HW,2013-02-01 18:41:00,
2013-02-01 10:46:00,33.6,32.8,29.95,NNW,338,0.0,0.0,97,0.00,,,0.00,WUHU216HW,2013-02-01 18:46:00,
2013-02-01 10:51:00,33.6,32.8,29.95,NW,315,0.0,0.0,97,0.00,,,0.00,WUHU216HW,2013-02-01 18:51:00,
2013-02-01 10:56:00,33.6,32.8,29.95,NW,315,0.0,0.0,97,0.00,,,0.00,WUHU216HW,2013-02-01 18:56:00,
2013-02-01 11:01:00,33.8,32.9,29.95,NW,315,0.0,0.0,97,0.00,,,0.00,WUHU216HW,2013-02-01 19:01:00,
2013-02-01 11:06:00,33.9,33.1,29.95,NW,315,0.0,0.0,97,0.00,,,0.00,WUHU216HW,2013-02-01 19:06:00,
2013-02-01 11:11:00,34.3,33.5,29.95,NW,315,0.0,0.0,97,0.00,,,0.00,WUHU216HW,2013-02-01 19:11:00,
2013-02-01 11:16:00,34.8,34.0,29.96,NW,315,0.0,0.0,97,0.00,,,0.00,WUHU216HW,2013-02-01 19:16:00,
2013-02-01 11:21:00,35.4,34.6,29.96,NW,315,0.0,0.0,97,0.00,,,0.00,WUHU216HW,2013-02-01 19:21:00,
2013-02-01 11:26:00,35.7,34.9,29.96,NW,315,0.0,0.0,97,0.00,,,0.00,WUHU216HW,2013-02-01 19:26:00,
2013-02-01 11:31:00,35.9,35.1,29.95,NW,315,0.0,0.0,97,0.00,,,0.00,WUHU216HW,2013-02-01 19:31:00,
2013-02-01 11:36:00,36.1,35.3,29.96,NW,315,0.0,0.0,97,0.00,,,0.00,WUHU216HW,2013-02-01 19:36:00,
2013-02-01 11:41:00,36.3,35.5,29.95,NW,315,0.0,0.0,97,0.00,,,0.00,WUHU216HW,2013-02-01 19:41:00,
2013-02-01 11:46:00,36.5,35.6,29.95,NW,315,0.0,0.0,97,0.00,,,0.00,WUHU216HW,2013-02-01 19:46:00,
2013-02-01 11:51:00,36.5,35.6,29.95,NW,315,0.0,0.0,97,0.00,,,0.00,WUHU216HW,2013-02-01 19:51:00,
2013-02-01 11:56:00,37.0,36.2,29.95,NW,315,0.0,0.0,97,0.00,,,0.00,WUHU216HW,2013-02-01 19:56:00,
2013-02-01 12:01:00,37.2,36.4,29.95,NW,315,0.0,0.0,97,0.00,,,0.00,WUHU216HW,2013-02-01 20:01:00,
2013-02-01 12:06:00,37.2,36.4,29.95,NW,315,0.0,0.0,97,0.00,,,0.00,WUHU216HW,2013-02-01 20:06:00,
2013-02-01 12:11:00,37.4,36.5,29.95,NW,315,0.0,0.0,97,0.00,,,0.00,WUHU216HW,2013-02-01 20:11:00,
2013-02-01 12:16:00,37.5,36.7,29.95,NW,315,0.0,0.0,97,0.00,,,0.00,WUHU216HW,2013-02-01 20:16:00,
2013-02-01 12:21:00,37.7,36.9,29.94,NW,315,0.0,0.0,97,0.00,,,0.00,WUHU216HW,2013-02-01 20:21:00,
2013-02-01 12:26:00,37.7,36.9,29.94,NW,315,0.0,0.0,97,0.00,,,0.00,WUHU216HW,2013-02-01 20:26:00,
2013-02-01 12:31:00,37.9,37.1,29.94,NW,315,0.0,0.0,97,0.00,,,0.00,WUHU216HW,2013-02-01 20:31:00,
2013-02-01 12:36:00,37.9,37.1,29.94,NW,315,0.0,0.0,97,0.00,,,0.00,WUHU216HW,2013-02-01 20:36:00,
2013-02-01 12:41:00,37.9,37.1,29.94,NW,315,0.0,0.0,97,0.00,,,0.00,WUHU216HW,2013-02-01 20:41:00,
2013-02-01 12:46:00,37.9,37.1,29.94,NW,315,0.0,0.0,97,0.00,,,0.00,WUHU216HW,2013-02-01 20:46:00,
2013-02-01 12:51:00,38.3,37.4,29.94,SW,225,0.0,0.0,97,0.00,,,0.00,WUHU216HW,2013-02-01 20:51:00,
2013-02-01 12:56:00,38.3,37.4,29.94,SW,225,0.0,0.0,97,0.00,,,0.00,WUHU216HW,2013-02-01 20:56:00,
2013-02-01 13:01:00,38.3,37.4,29.94,SW,225,0.0,0.0,97,0.00,,,0.00,WUHU216HW,2013-02-01 21:01:00,
2013-02-01 13:06:00,38.4,37.6,29.93,SW,225,0.0,0.0,97,0.00,,,0.00,WUHU216HW,2013-02-01 21:06:00,
2013-02-01 13:11:00,38.1,37.3,29.93,SW,225,0.0,0.0,97,0.00,,,0.00,WUHU216HW,2013-02-01 21:11:00,
2013-02-01 13:16:00,38.1,37.3,29.93,SW,225,0.0,0.0,97,0.00,,,0.00,WUHU216HW,2013-02-01 21:16:00,
2013-02-01 13:21:00,38.1,37.3,29.93,SW,225,0.0,0.0,97,0.00,,,0.00,WUHU216HW,2013-02-01 21:21:00,
2013-02-01 13:26:00,38.1,37.3,29.93,SW,225,0.0,0.0,97,0.00,,,0.00,WUHU216HW,2013-02-01 21:26:00,
2013-02-01 13:31:00,38.1,37.3,29.93,SW,225,0.0,0.0,97,0.00,,,0.00,WUHU216HW,2013-02-01 21:31:00,
2013-02-01 13:36:00,38.1,37.3,29.93,SW,225,0.0,0.0,97,0.00,,,0.00,WUHU216HW,2013-02-01 21:36:00,
2013-02-01 13:41:00,38.1,37.3,29.93,SW,225,0.0,0.0,97,0.00,,,0.00,WUHU216HW,2013-02-01 21:41:00,
2013-02-01 13:46:00,38.3,37.4,29.92,SW,225,0.0,0.0,97,0.00,,,0.00,WUHU216HW,2013-02-01 21:46:00,
2013-02-01 13:51:00,38.3,37.4,29.93,SW,225,0.0,0.0,97,0.00,,,0.00,WUHU216HW,2013-02-01 21:51:00,
2013-02-01 13:56:00,38.1,37.3,29.93,SW,225,0.0,0.0,97,0.00,,,0.00,WUHU216HW,2013-02-01 21:56:00,
2013-02-01 14:01:00,38.1,37.3,29.92,SW,225,0.0,0.0,97,0.00,,,0.00,WUHU216HW,2013-02-01 22:01:00,
2013-02-01 14:06:00,38.1,37.3,29.93,SW,225,0.0,0.0,97,0.00,,,0.00,WUHU216HW,2013-02-01 22:06:00,
2013-02-01 14:11:00,38.1,37.3,29.92,SW,225,0.0,0.0,97,0.00,,,0.00,WUHU216HW,2013-02-01 22:11:00,
2013-02-01 14:22:00,38.3,37.4,29.92,SW,225,0.0,0.0,97,0.00,,,0.00,WUHU216HW,2013-02-01 22:22:00,
2013-02-01 14:27:00,38.1,37.3,29.92,SW,225,0.0,0.0,97,0.00,,,0.00,WUHU216HW,2013-02-01 22:27:00,
2013-02-01 14:32:00,38.1,37.3,29.92,SW,225,0.0,0.0,97,0.00,,,0.00,WUHU216HW,2013-02-01 22:32:00,
2013-02-01 14:37:00,38.3,37.4,29.91,SW,225,0.0,0.0,97,0.00,,,0.00,WUHU216HW,2013-02-01 22:37:00,
2013-02-01 14:42:00,38.3,37.4,29.91,SW,225,0.0,0.0,97,0.00,,,0.00,WUHU216HW,2013-02-01 22:42:00,
2013-02-01 14:47:00,38.3,37.4,29.92,SW,225,0.0,0.0,97,0.00,,,0.00,WUHU216HW,2013-02-01 22:47:00,
2013-02-01 14:52:00,38.4,37.6,29.91,SW,225,0.0,0.0,97,0.00,,,0.00,WUHU216HW,2013-02-01 22:52:00,
2013-02-01 14:57:00,38.3,37.4,29.91,SW,225,0.0,0.0,97,0.00,,,0.00,WUHU216HW,2013-02-01 22:57:00,
2013-02-01 15:02:00,38.4,37.6,29.92,SW,225,0.0,0.0,97,0.00,,,0.00,WUHU216HW,2013-02-01 23:02:00,
2013-02-01 15:07:00,38.3,37.4,29.91,SW,225,0.0,0.0,97,0.00,,,0.00,WUHU216HW,2013-02-01 23:07:00,
2013-02-01 15:12:00,38.4,37.6,29.91,SW,225,0.0,0.0,97,0.00,,,0.00,WUHU216HW,2013-02-01 23:12:00,
2013-02-01 15:17:00,38.3,37.4,29.91,SW,225,0.0,0.0,97,0.00,,,0.00,WUHU216HW,2013-02-01 23:17:00,
2013-02-01 15:22:00,38.3,37.4,29.91,SW,225,0.0,0.0,97,0.00,,,0.00,WUHU216HW,2013-02-01 23:22:00,
2013-02-01 15:27:00,38.1,37.3,29.92,SW,225,0.0,0.0,97,0.00,,,0.00,WUHU216HW,2013-02-01 23:27:00,
2013-02-01 15:32:00,38.1,37.3,29.92,SW,225,0.0,0.0,97,0.00,,,0.00,WUHU216HW,2013-02-01 23:32:00,
2013-02-01 15:37:00,38.1,37.3,29.92,SW,225,0.0,0.0,97,0.00,,,0.00,WUHU216HW,2013-02-01 23:37:00,
2013-02-01 15:42:00,37.9,37.1,29.92,SW,225,0.0,0.0,97,0.00,,,0.00,WUHU216HW,2013-02-01 23:42:00,
2013-02-01 15:52:00,37.9,37.1,29.92,SW,225,0.0,0.0,97,0.00,,,0.00,WUHU216HW,2013-02-01 23:52:00,
2013-02-01 15:57:00,37.9,37.1,29.92,SW,225,0.0,0.0,97,0.00,,,0.00,WUHU216HW,2013-02-01 23:57:00,
2013-02-01 16:02:00,38.3,37.4,29.91,SW,225,0.0,0.0,97,0.00,,,0.00,WUHU216HW,2013-02-02 00:02:00,
2013-02-01 16:07:00,38.4,37.6,29.91,SW,225,0.0,0.0,97,0.00,,,0.00,WUHU216HW,2013-02-02 00:07:00,
2013-02-01 16:12:00,38.4,37.6,29.91,SW,225,0.0,0.0,97,0.00,,,0.00,WUHU216HW,2013-02-02 00:12:00,
2013-02-01 16:17:00,38.3,37.4,29.91,SW,225,0.0,0.0,97,0.00,,,0.00,WUHU216HW,2013-02-02 00:17:00,
2013-02-01 16:22:00,38.1,37.3,29.91,SW,225,0.0,0.0,97,0.00,,,0.00,WUHU216HW,2013-02-02 00:22:00,
2013-02-01 16:27:00,38.1,37.3,29.91,SW,225,0.0,0.0,97,0.00,,,0.00,WUHU216HW,2013-02-02 00:27:00,
2013-02-01 16:32:00,37.9,37.1,29.91,SW,225,0.0,0.0,97,0.00,,,0.00,WUHU216HW,2013-02-02 00:32:00,
2013-02-01 16:37:00,37.9,37.1,29.91,SW,225,0.0,0.0,97,0.00,,,0.00,WUHU216HW,2013-02-02 00:37:00,
2013-02-01 16:42:00,37.5,36.9,29.91,SW,225,0.0,0.0,97,0.00,,,0.00,WUHU216HW,2013-02-02 00:42:00,
2013-02-01 16:47:00,36.3,35.5,29.91,SW,225,0.0,0.0,97,0.00,,,0.00,WUHU216HW,2013-02-02 00:47:00,
2013-02-01 16:52:00,36.3,35.5,29.91,SW,225,0.0,0.0,97,0.00,,,0.00,WUHU216HW,2013-02-02 00:52:00,
2013-02-01 16:57:00,35.9,35.1,29.92,SW,225,0.0,0.0,97,0.00,,,0.00,WUHU216HW,2013-02-02 00:57:00,
2013-02-01 17:02:00,35.7,34.9,29.91,SW,225,0.0,0.0,97,0.00,,,0.00,WUHU216HW,2013-02-02 01:02:00,
2013-02-01 17:07:00,35.4,34.6,29.92,SW,225,0.0,0.0,97,0.00,,,0.00,WUHU216HW,2013-02-02 01:07:00,
2013-02-01 17:12:00,34.8,34.0,29.91,SW,225,0.0,0.0,97,0.00,,,0.00,WUHU216HW,2013-02-02 01:12:00,
2013-02-01 17:17:00,34.8,34.0,29.92,SW,225,0.0,0.0,97,0.00,,,0.00,WUHU216HW,2013-02-02 01:17:00,
2013-02-01 17:22:00,34.7,33.8,29.92,SW,225,0.0,0.0,97,0.00,,,0.00,WUHU216HW,2013-02-02 01:22:00,
2013-02-01 17:27:00,34.5,33.7,29.92,SW,225,0.0,0.0,97,0.00,,,0.00,WUHU216HW,2013-02-02 01:27:00,
2013-02-01 17:32:00,34.3,33.5,29.92,SW,225,0.0,0.0,97,0.00,,,0.00,WUHU216HW,2013-02-02 01:32:00,
2013-02-01 17:37:00,34.1,33.0,29.92,SW,225,0.0,0.0,96,0.00,,,0.00,WUHU216HW,2013-02-02 01:37:00,
2013-02-01 17:42:00,33.9,32.9,29.92,SW,225,0.0,0.0,96,0.00,,,0.00,WUHU216HW,2013-02-02 01:42:00,
2013-02-01 17:47:00,33.6,32.5,29.92,SW,225,0.0,0.0,96,0.00,,,0.00,WUHU216HW,2013-02-02 01:47:00,
2013-02-01 17:52:00,33.6,32.5,29.92,SW,225,0.0,0.0,96,0.00,,,0.00,WUHU216HW,2013-02-02 01:52:00,
2013-02-01 17:57:00,33.4,32.3,29.92,SW,225,0.0,0.0,96,0.00,,,0.00,WUHU216HW,2013-02-02 01:57:00,
2013-02-01 18:02:00,33.0,32.0,29.92,SW,225,0.0,0.0,96,0.00,,,0.00,WUHU216HW,2013-02-02 02:02:00,
2013-02-01 18:07:00,32.9,32.1,29.92,SW,225,0.0,0.0,97,0.00,,,0.00,WUHU216HW,2013-02-02 02:07:00,
2013-02-01 18:12:00,32.9,32.1,29.91,SW,225,0.0,0.0,97,0.00,,,0.00,WUHU216HW,2013-02-02 02:12:00,
2013-02-01 18:17:00,32.7,31.9,29.92,SW,225,0.0,0.0,97,0.00,,,0.00,WUHU216HW,2013-02-02 02:17:00,
2013-02-01 18:23:00,32.5,31.7,29.92,SW,225,0.0,0.0,97,0.00,,,0.00,WUHU216HW,2013-02-02 02:23:00,
2013-02-01 18:28:00,32.5,31.7,29.92,SW,225,0.0,0.0,97,0.00,,,0.00,WUHU216HW,2013-02-02 02:28:00,
2013-02-01 18:33:00,32.3,31.5,29.92,SW,225,0.0,0.0,97,0.00,,,0.00,WUHU216HW,2013-02-02 02:33:00,
2013-02-01 18:38:00,32.1,31.4,29.92,SW,225,0.0,0.0,97,0.00,,,0.00,WUHU216HW,2013-02-02 02:38:00,
2013-02-01 18:43:00,32.1,31.4,29.92,SW,225,0.0,0.0,97,0.00,,,0.00,WUHU216HW,2013-02-02 02:43:00,
2013-02-01 18:48:00,32.0,31.2,29.92,SW,225,0.0,0.0,97,0.00,,,0.00,WUHU216HW,2013-02-02 02:48:00,
2013-02-01 18:53:00,31.8,31.0,29.92,SW,225,0.0,0.0,97,0.00,,,0.00,WUHU216HW,2013-02-02 02:53:00,
2013-02-01 18:58:00,31.8,31.0,29.92,SW,225,0.0,0.0,97,0.00,,,0.00,WUHU216HW,2013-02-02 02:58:00,
2013-02-01 19:03:00,31.8,31.0,29.92,SW,225,0.0,0.0,97,0.00,,,0.00,WUHU216HW,2013-02-02 03:03:00,
2013-02-01 19:08:00,31.8,31.0,29.93,SW,225,0.0,0.0,97,0.00,,,0.00,WUHU216HW,2013-02-02 03:08:00,
2013-02-01 19:13:00,31.6,30.8,29.93,SW,225,0.0,0.0,97,0.00,,,0.00,WUHU216HW,2013-02-02 03:13:00,
2013-02-01 19:18:00,31.6,30.8,29.93,SW,225,0.0,0.0,97,0.00,,,0.00,WUHU216HW,2013-02-02 03:18:00,
2013-02-01 19:23:00,31.6,30.8,29.93,SW,225,0.0,0.0,97,0.00,,,0.00,WUHU216HW,2013-02-02 03:23:00,
2013-02-01 19:28:00,31.6,30.8,29.93,SW,225,0.0,0.0,97,0.00,,,0.00,WUHU216HW,2013-02-02 03:28:00,
2013-02-01 19:33:00,31.6,30.8,29.93,SW,225,0.0,0.0,97,0.00,,,0.00,WUHU216HW,2013-02-02 03:33:00,
2013-02-01 19:38:00,31.4,30.7,29.92,SW,225,0.0,0.0,97,0.00,,,0.00,WUHU216HW,2013-02-02 03:38:00,
2013-02-01 19:43:00,31.4,30.7,29.92,SW,225,0.0,0.0,97,0.00,,,0.00,WUHU216HW,2013-02-02 03:43:00,
2013-02-01 19:48:00,31.4,30.7,29.93,SW,225,0.0,0.0,97,0.00,,,0.00,WUHU216HW,2013-02-02 03:48:00,
2013-02-01 19:53:00,31.6,30.8,29.93,SW,225,0.0,0.0,97,0.00,,,0.00,WUHU216HW,2013-02-02 03:53:00,
2013-02-01 19:58:00,31.8,31.0,29.93,SW,225,0.0,0.0,97,0.00,,,0.00,WUHU216HW,2013-02-02 03:58:00,
2013-02-01 20:03:00,31.8,31.0,29.93,SW,225,0.0,0.0,97,0.00,,,0.00,WUHU216HW,2013-02-02 04:03:00,
2013-02-01 20:08:00,31.8,31.0,29.93,SW,225,0.0,0.0,97,0.00,,,0.00,WUHU216HW,2013-02-02 04:08:00,
2013-02-01 20:13:00,31.6,30.8,29.93,SW,225,0.0,0.0,97,0.00,,,0.00,WUHU216HW,2013-02-02 04:13:00,
2013-02-01 20:18:00,31.6,30.8,29.93,SW,225,0.0,0.0,97,0.00,,,0.00,WUHU216HW,2013-02-02 04:18:00,
2013-02-01 20:23:00,31.6,30.8,29.92,SW,225,0.0,0.0,97,0.00,,,0.00,WUHU216HW,2013-02-02 04:23:00,
2013-02-01 20:28:00,31.6,30.8,29.92,SW,225,0.0,0.0,97,0.00,,,0.00,WUHU216HW,2013-02-02 04:28:00,
2013-02-01 20:33:00,31.4,30.7,29.92,SW,225,0.0,0.0,97,0.00,,,0.00,WUHU216HW,2013-02-02 04:33:00,
2013-02-01 20:38:00,31.2,30.5,29.92,SW,225,0.0,0.0,97,0.00,,,0.00,WUHU216HW,2013-02-02 04:38:00,
2013-02-01 20:43:00,31.2,30.5,29.92,SW,225,0.0,0.0,97,0.00,,,0.00,WUHU216HW,2013-02-02 04:43:00,
2013-02-01 20:48:00,31.2,30.5,29.92,SW,225,0.0,0.0,97,0.00,,,0.00,WUHU216HW,2013-02-02 04:48:00,
2013-02-01 20:53:00,31.2,30.5,29.92,SW,225,0.0,0.0,97,0.00,,,0.00,WUHU216HW,2013-02-02 04:53:00,
2013-02-01 20:58:00,31.2,30.5,29.92,SW,225,0.0,0.0,97,0.00,,,0.00,WUHU216HW,2013-02-02 04:58:00,
2013-02-01 21:03:00,31.6,30.8,29.92,SW,225,0.0,0.0,97,0.00,,,0.00,WUHU216HW,2013-02-02 05:03:00,
2013-02-01 21:08:00,31.4,30.7,29.91,SW,225,0.0,0.0,97,0.00,,,0.00,WUHU216HW,2013-02-02 05:08:00,
2013-02-01 21:13:00,31.4,30.7,29.91,SW,225,0.0,0.0,97,0.00,,,0.00,WUHU216HW,2013-02-02 05:13:00,
2013-02-01 21:18:00,31.6,30.8,29.92,SW,225,0.0,0.0,97,0.00,,,0.00,WUHU216HW,2013-02-02 05:18:00,
2013-02-01 21:23:00,31.6,30.8,29.91,SW,225,0.0,0.0,97,0.00,,,0.00,WUHU216HW,2013-02-02 05:23:00,
2013-02-01 21:28:00,31.6,30.8,29.92,SW,225,0.0,0.0,97,0.00,,,0.00,WUHU216HW,2013-02-02 05:28:00,
2013-02-01 21:33:00,31.6,30.8,29.92,SW,225,0.0,0.0,97,0.00,,,0.00,WUHU216HW,2013-02-02 05:33:00,
2013-02-01 21:38:00,31.6,30.8,29.92,SW,225,0.0,0.0,97,0.00,,,0.00,WUHU216HW,2013-02-02 05:38:00,
2013-02-01 21:43:00,31.6,30.8,29.92,SW,225,0.0,0.0,97,0.00,,,0.00,WUHU216HW,2013-02-02 05:43:00,
2013-02-01 21:48:00,31.2,30.5,29.92,SW,225,0.0,0.0,97,0.00,,,0.00,WUHU216HW,2013-02-02 05:48:00,
2013-02-01 21:53:00,31.2,30.5,29.92,SW,225,0.0,0.0,97,0.00,,,0.00,WUHU216HW,2013-02-02 05:53:00,
2013-02-01 21:58:00,31.2,30.5,29.92,SW,225,0.0,0.0,97,0.00,,,0.00,WUHU216HW,2013-02-02 05:58:00,
2013-02-01 22:03:00,31.2,30.5,29.92,SW,225,0.0,0.0,97,0.00,,,0.00,WUHU216HW,2013-02-02 06:03:00,
2013-02-01 22:08:00,31.2,30.5,29.92,SW,225,0.0,0.0,97,0.00,,,0.00,WUHU216HW,2013-02-02 06:08:00,
2013-02-01 22:13:00,31.2,30.5,29.92,SW,225,0.0,0.0,97,0.00,,,0.00,WUHU216HW,2013-02-02 06:13:00,
2013-02-01 22:18:00,31.2,30.5,29.92,SW,225,0.0,0.0,97,0.00,,,0.00,WUHU216HW,2013-02-02 06:18:00,
2013-02-01 22:23:00,31.1,30.3,29.92,SW,225,0.0,0.0,97,0.00,,,0.00,WUHU216HW,2013-02-02 06:23:00,
2013-02-01 22:28:00,31.1,30.3,29.92,SW,225,0.0,0.0,97,0.00,,,0.00,WUHU216HW,2013-02-02 06:28:00,
2013-02-01 22:33:00,31.1,30.3,29.92,SW,225,0.0,0.0,97,0.00,,,0.00,WUHU216HW,2013-02-02 06:33:00,
2013-02-01 22:38:00,30.9,30.1,29.91,SW,225,0.0,0.0,97,0.00,,,0.00,WUHU216HW,2013-02-02 06:38:00,
2013-02-01 22:44:00,30.9,30.1,29.92,SW,225,0.0,0.0,97,0.00,,,0.00,WUHU216HW,2013-02-02 06:44:00,
2013-02-01 22:49:00,30.9,30.1,29.91,SW,225,0.0,0.0,97,0.00,,,0.00,WUHU216HW,2013-02-02 06:49:00,
2013-02-01 22:54:00,30.9,30.1,29.91,SW,225,0.0,0.0,97,0.00,,,0.00,WUHU216HW,2013-02-02 06:54:00,
2013-02-01 22:59:00,30.9,30.1,29.91,SW,225,0.0,0.0,97,0.00,,,0.00,WUHU216HW,2013-02-02 06:59:00,
2013-02-01 23:04:00,30.9,30.1,29.91,SW,225,0.0,0.0,97,0.00,,,0.00,WUHU216HW,2013-02-02 07:04:00,
2013-02-01 23:09:00,30.9,30.1,29.91,SW,225,0.0,0.0,97,0.00,,,0.00,WUHU216HW,2013-02-02 07:09:00,
2013-02-01 23:14:00,31.1,30.3,29.91,SW,225,0.0,0.0,97,0.00,,,0.00,WUHU216HW,2013-02-02 07:14:00,
2013-02-01 23:19:00,30.9,30.1,29.91,SW,225,0.0,0.0,97,0.00,,,0.00,WUHU216HW,2013-02-02 07:19:00,
2013-02-01 23:24:00,31.1,30.3,29.91,SW,225,0.0,0.0,97,0.00,,,0.00,WUHU216HW,2013-02-02 07:24:00,
2013-02-01 23:29:00,30.9,30.1,29.90,SW,225,0.0,0.0,97,0.00,,,0.00,WUHU216HW,2013-02-02 07:29:00,
2013-02-01 23:34:00,30.9,30.1,29.90,SW,225,0.0,0.0,97,0.00,,,0.00,WUHU216HW,2013-02-02 07:34:00,
2013-02-01 23:39:00,31.1,30.3,29.90,SW,225,0.0,0.0,97,0.00,,,0.00,WUHU216HW,2013-02-02 07:39:00,
2013-02-01 23:44:00,31.1,30.3,29.90,SW,225,0.0,0.0,97,0.00,,,0.00,WUHU216HW,2013-02-02 07:44:00,
2013-02-01 23:49:00,31.1,30.3,29.90,SW,225,0.0,0.0,97,0.00,,,0.00,WUHU216HW,2013-02-02 07:49:00,
2013-02-01 23:54:00,31.1,30.3,29.90,SW,225,0.0,0.0,97,0.00,,,0.00,WUHU216HW,2013-02-02 07:54:00,
2013-02-01 23:59:00,31.1,30.3,29.90,SW,225,0.0,0.0,97,0.00,,,0.00,WUHU216HW,2013-02-02 07:59:00,